Pagina principale
METAR-TAF:

METAR-TAF

Aeroporti :

Aeroporto di Olbia-Costa Smeralda

Olbia, Italia

latitudine: 40-54N, longitudine: 009-31E, altezza: 11 m

Osservazione

Il bollettino è stato emesso 22 minuti fa, alle 14:50 UTC
Vento 5 kt da est/nord-est
Temperature 17°C
Umidità 82%
Pressione 1012 hPa
Visibilità 10 km o più
nessuna nube inferiore a 1500 m e nessun cumulonembo

METAR: LIEO 061450Z 07005KT CAVOK 17/14 Q1012

Ora: 16:12 (15:12 UTC)

Previsione

Il bollettino è stato emesso 4 ore e 12 minuti fa, alle 11:00 UTC
Previsione valida dal 06 alle 12 UTC al 07 alle 12 UTC
Vento 5 kt da direzioni variabili
Visibilità 10 km o più
nessuna nube inferiore a 1500 m e nessun cumulonembo

TAF: LIEO 061100Z 0612/0712 VRB05KT CAVOK

Osservazioni e previsioni meteorologiche di più di 4000 aeroporti (messaggi METAR e TAF).

Le stazioni disponibili sono rappresentate dai dischi gialli e rossi sulla carta.

Puntare il mouse per vedere il nome della stazione.

Clicca sopra per visualizzare le osservazioni e previsioni meteorologiche.

Per cambiare la mappa : fare clic sui pulsanti verdi con una croce nera per ingrandire, il pulsante verde con un trattino per diminuire, o sulla freccia verde per le mappe adiacenti.


METAR-TAF: